createdAt,value
2023-05-14T00:00:48.573Z,63.65
2023-05-14T00:02:51.238Z,64.59
2023-05-14T00:04:54.110Z,63.80
2023-05-14T00:06:56.443Z,64.24
2023-05-14T00:08:58.809Z,63.57
2023-05-14T00:11:01.717Z,63.46
2023-05-14T00:13:04.082Z,63.46
2023-05-14T00:15:07.334Z,62.75
2023-05-14T00:17:09.887Z,63.28
2023-05-14T00:19:12.355Z,62.81
2023-05-14T00:21:14.925Z,62.82
2023-05-14T00:23:17.622Z,62.57
2023-05-14T00:25:20.840Z,62.05
2023-05-14T00:27:23.814Z,62.73
2023-05-14T00:29:26.763Z,62.57
2023-05-14T00:31:29.380Z,62.48
2023-05-14T00:33:31.922Z,62.81
2023-05-14T00:35:37.644Z,63.05
2023-05-14T00:37:40.187Z,63.14
2023-05-14T00:39:42.919Z,62.57
2023-05-14T00:41:45.722Z,63.43
2023-05-14T00:43:48.286Z,63.34
2023-05-14T00:45:54.929Z,63.02
2023-05-14T00:47:57.547Z,63.50
2023-05-14T00:50:00.110Z,63.14
2023-05-14T00:52:03.118Z,63.02
2023-05-14T00:54:06.687Z,62.91
2023-05-14T00:56:09.925Z,63.87
2023-05-14T00:58:14.267Z,62.66
2023-05-14T01:00:17.557Z,63.73
2023-05-14T01:02:20.148Z,64.03
2023-05-14T01:04:23.366Z,63.88
2023-05-14T01:07:02.444Z,63.94
2023-05-14T01:09:29.510Z,63.55
2023-05-14T01:12:19.047Z,63.26
2023-05-14T01:14:29.593Z,64.36
2023-05-14T01:16:35.694Z,64.04
2023-05-14T01:18:40.409Z,63.93
2023-05-14T01:20:44.212Z,64.67
2023-05-14T01:22:46.828Z,65.08
2023-05-14T01:24:49.740Z,65.99
2023-05-14T01:26:53.122Z,65.89
2023-05-14T01:29:14.768Z,66.31
2023-05-14T01:31:25.470Z,66.45
2023-05-14T01:33:30.588Z,66.59
2023-05-14T01:35:34.041Z,66.27
2023-05-14T01:37:37.611Z,65.62
2023-05-14T01:39:42.594Z,65.54
2023-05-14T01:41:47.401Z,65.73
2023-05-14T01:43:51.180Z,65.77
2023-05-14T01:45:55.794Z,64.92
2023-05-14T01:48:00.285Z,65.39
2023-05-14T01:50:02.903Z,65.04
2023-05-14T01:52:07.619Z,64.75
2023-05-14T01:54:10.111Z,65.10
2023-05-14T01:56:12.618Z,64.97
2023-05-14T01:58:15.312Z,65.60
2023-05-14T02:00:18.118Z,65.47
2023-05-14T02:02:20.935Z,65.83
2023-05-14T02:04:23.588Z,65.26
2023-05-14T02:06:26.885Z,66.40
2023-05-14T02:08:31.716Z,66.36
2023-05-14T02:10:34.433Z,66.81
2023-05-14T02:12:38.077Z,66.54
2023-05-14T02:14:40.600Z,66.34
2023-05-14T02:16:43.317Z,66.83
2023-05-14T02:18:45.745Z,66.73
2023-05-14T02:20:49.120Z,66.90
2023-05-14T02:22:53.499Z,66.80
2023-05-14T02:24:56.909Z,66.58
2023-05-14T02:27:01.320Z,66.50
2023-05-14T02:29:03.828Z,66.97
2023-05-14T02:31:06.420Z,66.82
2023-05-14T02:33:09.609Z,66.39
2023-05-14T02:35:12.535Z,66.82
2023-05-14T02:37:15.128Z,67.56
2023-05-14T02:39:17.911Z,68.26
2023-05-14T02:41:22.053Z,67.87
2023-05-14T02:43:24.848Z,67.58
2023-05-14T02:45:28.351Z,68.00
2023-05-14T02:47:31.153Z,68.59
2023-05-14T02:49:33.644Z,68.11
2023-05-14T02:51:36.652Z,68.00
2023-05-14T02:53:39.127Z,67.76
2023-05-14T02:55:41.963Z,67.96
2023-05-14T02:57:45.265Z,68.48
2023-05-14T02:59:48.022Z,68.69
2023-05-14T03:01:51.733Z,69.39
2023-05-14T03:03:55.716Z,68.56
2023-05-14T03:05:58.275Z,68.17
2023-05-14T03:08:01.459Z,68.18
2023-05-14T03:10:04.605Z,68.80
2023-05-14T03:12:08.217Z,68.79
2023-05-14T03:14:11.283Z,68.96
2023-05-14T03:16:14.081Z,68.34
2023-05-14T03:18:16.884Z,68.21
2023-05-14T03:20:19.642Z,68.15
2023-05-14T03:22:22.236Z,68.08
2023-05-14T03:24:24.909Z,67.72
2023-05-14T03:26:27.339Z,68.44
2023-05-14T03:28:30.239Z,67.91
2023-05-14T03:30:32.764Z,67.89
2023-05-14T03:32:35.951Z,67.82
2023-05-14T03:34:39.171Z,68.29
2023-05-14T03:36:42.446Z,67.88
2023-05-14T03:38:45.088Z,68.20
2023-05-14T03:40:49.274Z,69.00
2023-05-14T03:42:51.717Z,68.49
2023-05-14T03:44:54.443Z,69.24
2023-05-14T03:46:56.826Z,69.25
2023-05-14T03:48:59.302Z,68.79
2023-05-14T03:51:02.895Z,68.46
2023-05-14T03:53:05.421Z,67.71
2023-05-14T03:55:08.351Z,68.07
2023-05-14T03:57:11.972Z,67.84
2023-05-14T03:59:14.460Z,67.91
2023-05-14T04:01:16.947Z,67.99
2023-05-14T04:03:19.940Z,67.69
2023-05-14T04:05:23.072Z,68.24
2023-05-14T04:07:25.793Z,68.30
2023-05-14T04:09:28.973Z,67.71
2023-05-14T04:11:32.335Z,68.47
2023-05-14T04:13:35.777Z,68.10
2023-05-14T04:15:39.889Z,67.69
2023-05-14T04:17:44.118Z,67.93
2023-05-14T04:19:48.378Z,68.34
2023-05-14T04:21:51.224Z,68.23
2023-05-14T04:23:54.875Z,68.25
2023-05-14T04:25:57.732Z,68.15
2023-05-14T04:28:00.611Z,68.47
2023-05-14T04:30:03.375Z,68.59
2023-05-14T04:32:07.288Z,68.21
2023-05-14T04:34:09.957Z,67.37
2023-05-14T04:36:13.285Z,67.63
2023-05-14T04:38:16.120Z,67.95
2023-05-14T04:40:19.572Z,66.33
2023-05-14T04:42:22.410Z,65.54
2023-05-14T04:44:24.868Z,66.30
2023-05-14T04:46:27.284Z,65.67
2023-05-14T04:48:29.842Z,65.04
2023-05-14T04:50:32.677Z,64.50
2023-05-14T04:52:35.366Z,63.73
2023-05-14T04:54:37.774Z,63.17
2023-05-14T04:56:40.424Z,62.71
2023-05-14T04:58:43.556Z,63.46
2023-05-14T05:00:46.638Z,63.51
2023-05-14T05:02:49.397Z,62.17
2023-05-14T05:04:51.880Z,61.69
2023-05-14T05:06:54.173Z,62.11
2023-05-14T05:08:57.064Z,61.05
2023-05-14T05:10:59.696Z,61.54
2023-05-14T05:13:02.485Z,62.25
2023-05-14T05:15:07.020Z,60.39
2023-05-14T05:17:09.904Z,61.47
2023-05-14T05:19:12.721Z,60.89
2023-05-14T05:21:19.132Z,61.65
2023-05-14T05:23:21.806Z,60.88
2023-05-14T05:25:24.074Z,60.27
2023-05-14T05:27:27.093Z,59.88
2023-05-14T05:29:30.171Z,59.19
2023-05-14T05:31:32.847Z,59.75
2023-05-14T05:33:36.104Z,59.01
2023-05-14T05:35:39.062Z,59.18
2023-05-14T05:37:43.089Z,58.66
2023-05-14T05:39:46.034Z,58.54
2023-05-14T05:41:48.666Z,58.29
2023-05-14T05:43:51.305Z,58.69
2023-05-14T05:45:53.777Z,59.63
2023-05-14T05:47:56.359Z,57.80
2023-05-14T05:50:00.186Z,57.78
2023-05-14T05:52:03.186Z,58.19
2023-05-14T05:54:05.942Z,57.96
2023-05-14T05:56:09.137Z,57.50
2023-05-14T05:58:11.672Z,57.39
2023-05-14T06:00:15.825Z,57.10
2023-05-14T06:02:20.054Z,56.97
2023-05-14T06:04:22.822Z,56.43
2023-05-14T06:06:25.240Z,55.86
2023-05-14T06:08:30.806Z,55.92
2023-05-14T06:10:35.140Z,56.71
2023-05-14T06:12:38.022Z,56.50
2023-05-14T06:14:43.967Z,54.81
2023-05-14T06:16:49.591Z,55.11
2023-05-14T06:18:53.409Z,54.24
2023-05-14T06:20:57.584Z,55.63
2023-05-14T06:23:00.114Z,55.92
2023-05-14T06:25:03.324Z,53.14
2023-05-14T06:27:07.183Z,52.87
2023-05-14T06:29:09.733Z,53.36
2023-05-14T06:31:12.180Z,52.43
2023-05-14T06:33:15.984Z,53.35
2023-05-14T06:35:19.842Z,54.14
2023-05-14T06:37:22.652Z,54.24
2023-05-14T06:39:25.437Z,53.51
2023-05-14T06:41:30.341Z,52.38
2023-05-14T06:43:32.833Z,52.45
2023-05-14T06:45:36.409Z,51.50
2023-05-14T06:47:38.865Z,50.82
2023-05-14T06:49:41.174Z,51.27
2023-05-14T06:51:43.994Z,51.76
2023-05-14T06:53:47.721Z,52.42
2023-05-14T06:55:51.203Z,51.55
2023-05-14T06:57:53.409Z,51.09
2023-05-14T06:59:55.955Z,51.28
2023-05-14T07:01:59.412Z,50.31
2023-05-14T07:04:02.098Z,50.73
2023-05-14T07:06:05.068Z,50.72
2023-05-14T07:08:07.682Z,50.43
2023-05-14T07:10:10.713Z,50.41
2023-05-14T07:12:13.635Z,50.10
2023-05-14T07:14:16.911Z,47.90
2023-05-14T07:16:20.114Z,48.30
2023-05-14T07:18:24.889Z,48.32
2023-05-14T07:20:27.943Z,48.47
2023-05-14T07:22:30.536Z,49.21
2023-05-14T07:24:33.233Z,48.93
2023-05-14T07:26:35.903Z,48.04
2023-05-14T07:28:38.687Z,49.03
2023-05-14T07:30:41.910Z,47.38
2023-05-14T07:32:44.846Z,48.47
2023-05-14T07:34:47.876Z,47.95
2023-05-14T07:36:50.461Z,48.94
2023-05-14T07:38:53.131Z,47.33
2023-05-14T07:40:56.854Z,47.02
2023-05-14T07:42:59.805Z,47.22
2023-05-14T07:45:02.515Z,45.45
2023-05-14T07:47:07.959Z,46.55
2023-05-14T07:49:10.871Z,47.09
2023-05-14T07:51:13.379Z,46.35
2023-05-14T07:53:16.388Z,47.23
2023-05-14T07:55:18.932Z,46.94
2023-05-14T07:57:22.445Z,47.75
2023-05-14T07:59:25.396Z,47.78
2023-05-14T08:01:28.121Z,47.30
2023-05-14T08:03:30.968Z,47.53
2023-05-14T08:05:33.580Z,47.90
2023-05-14T08:07:36.236Z,48.20
2023-05-14T08:09:38.919Z,47.39
2023-05-14T08:11:41.749Z,48.72
2023-05-14T08:13:45.009Z,48.73
2023-05-14T08:15:48.217Z,48.98
2023-05-14T08:17:50.813Z,48.61
2023-05-14T08:19:54.756Z,47.53
2023-05-14T08:21:57.616Z,46.84
2023-05-14T08:24:00.800Z,47.41
2023-05-14T08:26:03.575Z,46.80
2023-05-14T08:28:06.450Z,46.65
2023-05-14T08:30:09.798Z,47.04
2023-05-14T08:32:22.784Z,46.93
2023-05-14T08:34:26.574Z,46.37
2023-05-14T08:36:30.247Z,45.65
2023-05-14T08:38:32.945Z,45.21
2023-05-14T08:40:35.745Z,45.92
2023-05-14T08:42:42.144Z,46.36
2023-05-14T08:44:54.055Z,45.10
2023-05-14T08:46:58.103Z,44.35
2023-05-14T08:49:37.895Z,45.23
2023-05-14T08:51:41.333Z,43.88
2023-05-14T08:53:44.064Z,44.08
2023-05-14T08:55:49.991Z,42.30
2023-05-14T08:57:52.777Z,40.78
2023-05-14T08:59:55.458Z,42.11
2023-05-14T09:02:02.300Z,41.86
2023-05-14T09:04:09.562Z,40.41
2023-05-14T09:06:15.031Z,39.61
2023-05-14T09:08:17.638Z,40.09
2023-05-14T09:10:21.869Z,39.54
2023-05-14T09:12:24.681Z,39.52
2023-05-14T09:14:27.496Z,40.94
2023-05-14T09:16:31.220Z,40.24
2023-05-14T09:18:36.503Z,39.07
2023-05-14T09:20:39.561Z,39.91
2023-05-14T09:22:43.130Z,40.15
2023-05-14T09:24:46.797Z,39.02
2023-05-14T09:26:57.957Z,37.54
2023-05-14T09:29:02.741Z,38.59
2023-05-14T09:31:05.851Z,41.11
2023-05-14T09:33:10.849Z,39.99
2023-05-14T09:35:19.469Z,38.19
2023-05-14T09:37:22.828Z,36.55
2023-05-14T09:39:26.872Z,35.87
2023-05-14T09:41:29.778Z,36.91
2023-05-14T09:43:32.878Z,35.60
2023-05-14T09:45:35.960Z,37.57
2023-05-14T09:47:39.610Z,36.92
2023-05-14T09:49:42.540Z,36.95
2023-05-14T09:51:45.635Z,34.56
2023-05-14T09:53:49.338Z,36.05
2023-05-14T09:55:52.465Z,35.49
2023-05-14T09:57:54.840Z,34.80
2023-05-14T09:59:57.506Z,34.72
2023-05-14T10:02:01.680Z,34.80
2023-05-14T10:04:07.998Z,34.49
2023-05-14T10:06:15.500Z,35.61
2023-05-14T10:08:54.629Z,35.31
2023-05-14T10:11:00.267Z,34.80
2023-05-14T10:13:11.301Z,35.13
2023-05-14T10:15:20.661Z,36.10
2023-05-14T10:17:28.274Z,35.10
2023-05-14T10:19:37.976Z,35.90
2023-05-14T10:21:45.399Z,35.38
2023-05-14T10:23:49.460Z,36.80
2023-05-14T10:25:51.914Z,36.67
2023-05-14T10:27:55.297Z,36.86
2023-05-14T10:29:58.467Z,36.46
2023-05-14T10:32:07.278Z,36.78
2023-05-14T10:34:38.884Z,35.11
2023-05-14T10:36:42.834Z,34.83
2023-05-14T10:38:45.625Z,35.51
2023-05-14T10:40:48.354Z,36.25
2023-05-14T10:42:51.363Z,36.34
2023-05-14T10:44:59.002Z,34.82
2023-05-14T10:47:03.040Z,33.52
2023-05-14T10:49:06.167Z,32.86
2023-05-14T10:51:13.226Z,33.20
2023-05-14T10:53:16.022Z,33.47
2023-05-14T10:55:18.949Z,35.11
2023-05-14T10:57:23.061Z,32.54
2023-05-14T10:59:28.948Z,33.35
2023-05-14T11:01:32.676Z,33.54
2023-05-14T11:03:46.702Z,33.44
2023-05-14T11:05:50.322Z,33.86
2023-05-14T11:07:56.448Z,34.54
2023-05-14T11:10:05.111Z,33.57
2023-05-14T11:12:09.298Z,33.20
2023-05-14T11:14:12.692Z,31.86
2023-05-14T11:16:23.436Z,33.85
2023-05-14T11:18:31.420Z,33.49
2023-05-14T11:20:36.609Z,32.99
2023-05-14T11:22:43.764Z,34.09
2023-05-14T11:24:46.504Z,34.64
2023-05-14T11:26:49.599Z,33.99
2023-05-14T11:28:52.685Z,35.60
2023-05-14T11:30:55.184Z,34.42
2023-05-14T11:32:59.321Z,35.55
2023-05-14T11:35:03.801Z,34.50
2023-05-14T11:37:08.246Z,36.45
2023-05-14T11:39:19.347Z,35.79
2023-05-14T11:41:23.575Z,36.93
2023-05-14T11:43:29.611Z,36.71
2023-05-14T11:45:33.399Z,37.06
2023-05-14T11:47:36.060Z,37.37
2023-05-14T11:49:38.596Z,37.38
2023-05-14T11:51:41.991Z,37.85
2023-05-14T11:53:46.954Z,37.53
2023-05-14T11:55:49.626Z,36.71
2023-05-14T11:57:52.792Z,37.48
2023-05-14T12:00:00.355Z,36.69
2023-05-14T12:02:05.548Z,37.05
2023-05-14T12:04:08.495Z,37.75
2023-05-14T12:06:11.595Z,37.55
2023-05-14T12:08:24.267Z,36.40
2023-05-14T12:10:27.300Z,37.55
2023-05-14T12:12:36.340Z,36.84
2023-05-14T12:14:42.292Z,37.93
2023-05-14T12:16:46.588Z,38.48
2023-05-14T12:18:50.044Z,38.29
2023-05-14T12:20:53.170Z,38.44
2023-05-14T12:22:55.615Z,38.09
2023-05-14T12:25:00.814Z,37.21
2023-05-14T12:27:03.675Z,38.57
2023-05-14T12:29:09.668Z,40.16
2023-05-14T12:31:12.038Z,39.66
2023-05-14T12:33:18.887Z,39.35
2023-05-14T12:35:22.965Z,38.09
2023-05-14T12:37:27.385Z,37.81
2023-05-14T12:39:34.322Z,39.71
2023-05-14T12:41:37.672Z,38.71
2023-05-14T12:43:44.510Z,37.53
2023-05-14T12:45:47.210Z,38.18
2023-05-14T12:47:50.574Z,38.51
2023-05-14T12:49:53.311Z,38.92
2023-05-14T12:52:07.772Z,40.06
2023-05-14T12:54:18.545Z,41.09
2023-05-14T12:56:22.359Z,39.40
2023-05-14T12:58:25.126Z,37.40
2023-05-14T13:00:28.465Z,38.79
2023-05-14T13:02:31.086Z,38.42
2023-05-14T13:04:34.307Z,38.64
2023-05-14T13:06:37.231Z,39.92
2023-05-14T13:08:40.996Z,39.17
2023-05-14T13:10:45.711Z,38.96
2023-05-14T13:12:48.860Z,38.74
2023-05-14T13:14:51.628Z,38.58
2023-05-14T13:16:54.019Z,40.42
2023-05-14T13:18:56.539Z,40.63
2023-05-14T13:20:59.354Z,38.97
2023-05-14T13:23:02.745Z,38.04
2023-05-14T13:25:06.539Z,38.36
2023-05-14T13:27:09.055Z,38.07
2023-05-14T13:29:12.222Z,38.52
2023-05-14T13:31:15.246Z,37.58
2023-05-14T13:33:17.961Z,38.19
2023-05-14T13:35:20.435Z,39.05
2023-05-14T13:37:24.242Z,37.53
2023-05-14T13:39:27.605Z,39.06
2023-05-14T13:41:30.511Z,39.07
2023-05-14T13:43:34.697Z,38.98
2023-05-14T13:45:37.289Z,39.80
2023-05-14T13:47:40.430Z,39.31
2023-05-14T13:49:43.602Z,39.80
2023-05-14T13:51:46.748Z,38.91
2023-05-14T13:53:50.564Z,39.68
2023-05-14T13:56:01.699Z,39.79
2023-05-14T13:58:04.888Z,40.64
2023-05-14T14:00:08.916Z,40.39
2023-05-14T14:02:11.780Z,40.07
2023-05-14T14:04:16.736Z,40.13
2023-05-14T14:06:20.313Z,39.63
2023-05-14T14:08:24.506Z,39.54
2023-05-14T14:10:27.483Z,39.29
2023-05-14T14:12:30.107Z,40.32
2023-05-14T14:14:33.167Z,40.67
2023-05-14T14:16:36.966Z,39.24
2023-05-14T14:18:39.819Z,39.76
2023-05-14T14:20:42.643Z,38.42
2023-05-14T14:22:45.474Z,40.50
2023-05-14T14:24:47.957Z,40.42
2023-05-14T14:26:50.715Z,39.85
2023-05-14T14:28:53.600Z,39.68
2023-05-14T14:30:56.512Z,39.84
2023-05-14T14:33:01.932Z,41.52
2023-05-14T14:35:05.985Z,41.79
2023-05-14T14:37:08.872Z,41.55
2023-05-14T14:39:11.652Z,41.93
2023-05-14T14:41:14.785Z,42.15
2023-05-14T14:43:17.726Z,42.32
2023-05-14T14:45:20.623Z,42.07
2023-05-14T14:47:23.732Z,41.96
2023-05-14T14:49:26.696Z,41.03
2023-05-14T14:51:30.664Z,41.98
2023-05-14T14:53:34.472Z,41.28
2023-05-14T14:55:37.446Z,41.96
2023-05-14T14:57:40.158Z,42.28
2023-05-14T14:59:42.731Z,42.32
2023-05-14T15:01:45.521Z,43.17
2023-05-14T15:03:48.946Z,43.43
2023-05-14T15:05:53.913Z,44.50
2023-05-14T15:07:56.807Z,43.52
2023-05-14T15:10:01.029Z,44.51
2023-05-14T15:12:03.728Z,43.13
2023-05-14T15:14:06.440Z,41.98
2023-05-14T15:16:09.744Z,42.49
2023-05-14T15:18:12.961Z,42.19
2023-05-14T15:20:16.611Z,42.28
2023-05-14T15:22:19.428Z,42.97
2023-05-14T15:24:24.410Z,44.03
2023-05-14T15:26:27.039Z,45.19
2023-05-14T15:28:29.631Z,46.12
2023-05-14T15:30:31.996Z,46.23
2023-05-14T15:32:34.962Z,46.64
2023-05-14T15:34:37.788Z,46.41
2023-05-14T15:36:41.256Z,45.05
2023-05-14T15:38:43.852Z,45.51
2023-05-14T15:40:46.626Z,44.73
2023-05-14T15:42:49.118Z,45.82
2023-05-14T15:44:52.425Z,46.00
2023-05-14T15:46:55.346Z,46.35
2023-05-14T15:48:58.714Z,45.65
2023-05-14T15:51:01.309Z,45.34
2023-05-14T15:53:04.022Z,45.32
2023-05-14T15:55:08.424Z,45.53
2023-05-14T15:57:11.189Z,45.66
2023-05-14T15:59:15.663Z,44.87
2023-05-14T16:01:19.667Z,45.42
2023-05-14T16:03:22.430Z,45.25
2023-05-14T16:05:25.635Z,46.18
2023-05-14T16:07:28.198Z,45.57
2023-05-14T16:09:31.415Z,45.38
2023-05-14T16:11:34.591Z,45.32
2023-05-14T16:13:39.035Z,45.71
2023-05-14T16:15:42.870Z,45.48
2023-05-14T16:17:45.909Z,45.50
2023-05-14T16:19:48.635Z,45.16
2023-05-14T16:21:51.508Z,45.71
2023-05-14T16:23:54.220Z,45.75
2023-05-14T16:25:57.164Z,45.95
2023-05-14T16:28:00.783Z,46.29
2023-05-14T16:30:05.553Z,46.95
2023-05-14T16:32:09.234Z,46.97
2023-05-14T16:34:12.084Z,46.45
2023-05-14T16:36:14.984Z,46.72
2023-05-14T16:38:19.861Z,46.12
2023-05-14T16:40:24.104Z,46.62
2023-05-14T16:42:27.241Z,46.28
2023-05-14T16:44:30.209Z,46.68
2023-05-14T16:46:33.469Z,46.73
2023-05-14T16:48:36.337Z,47.38
2023-05-14T16:50:39.050Z,48.61
2023-05-14T16:52:42.431Z,49.11
2023-05-14T16:54:45.562Z,49.21
2023-05-14T16:56:48.481Z,50.67
2023-05-14T16:58:52.266Z,51.48
2023-05-14T17:00:54.906Z,50.53
2023-05-14T17:02:57.892Z,52.34
2023-05-14T17:05:01.357Z,53.51
2023-05-14T17:07:06.162Z,53.90
2023-05-14T17:09:09.057Z,54.29
2023-05-14T17:11:12.067Z,55.16
2023-05-14T17:13:15.753Z,55.73
2023-05-14T17:15:18.489Z,56.56
2023-05-14T17:17:21.257Z,56.97
2023-05-14T17:19:24.140Z,57.46
2023-05-14T17:21:27.289Z,57.67
2023-05-14T17:23:29.966Z,57.53
2023-05-14T17:25:33.949Z,58.36
2023-05-14T17:27:36.933Z,58.68
2023-05-14T17:29:39.913Z,58.56
2023-05-14T17:31:43.430Z,58.08
2023-05-14T17:33:46.110Z,58.01
2023-05-14T17:35:49.602Z,57.38
2023-05-14T17:37:52.698Z,58.69
2023-05-14T17:39:55.520Z,58.42
2023-05-14T17:41:58.104Z,59.07
2023-05-14T17:44:00.959Z,60.47
2023-05-14T17:46:04.053Z,61.19
2023-05-14T17:48:07.075Z,61.93
2023-05-14T17:50:09.972Z,62.69
2023-05-14T17:52:12.780Z,62.51
2023-05-14T17:54:15.550Z,63.82
2023-05-14T17:56:19.322Z,63.33
2023-05-14T17:58:22.179Z,63.64
2023-05-14T18:00:25.677Z,63.67
2023-05-14T18:02:28.573Z,63.60
2023-05-14T18:04:31.586Z,63.23
2023-05-14T18:06:34.261Z,63.70
2023-05-14T18:08:37.140Z,63.46
2023-05-14T18:10:40.148Z,64.10
2023-05-14T18:12:43.483Z,64.14
2023-05-14T18:14:46.798Z,64.02
2023-05-14T18:16:49.563Z,63.81
2023-05-14T18:18:52.969Z,64.13
2023-05-14T18:20:55.861Z,64.53
2023-05-14T18:22:58.741Z,64.69
2023-05-14T18:25:01.472Z,64.91
2023-05-14T18:27:05.504Z,64.63
2023-05-14T18:29:08.559Z,64.44
2023-05-14T18:31:11.547Z,64.89
2023-05-14T18:33:14.479Z,64.65
2023-05-14T18:35:17.436Z,65.38
2023-05-14T18:37:19.926Z,67.13
2023-05-14T18:39:23.186Z,67.50
2023-05-14T18:41:26.016Z,66.93
2023-05-14T18:43:28.999Z,67.71
2023-05-14T18:45:31.954Z,67.78
2023-05-14T18:47:35.759Z,67.73
2023-05-14T18:49:42.968Z,67.46
2023-05-14T18:51:46.583Z,67.99
2023-05-14T18:53:49.421Z,67.72
2023-05-14T18:55:52.810Z,66.91
2023-05-14T18:57:55.712Z,67.46
2023-05-14T18:59:58.381Z,66.98
2023-05-14T19:02:01.014Z,66.96
2023-05-14T19:04:05.386Z,67.35
2023-05-14T19:06:08.580Z,66.71
2023-05-14T19:08:11.979Z,67.40
2023-05-14T19:10:15.243Z,67.34
2023-05-14T19:12:18.086Z,67.47
2023-05-14T19:14:20.878Z,67.54
2023-05-14T19:16:24.988Z,66.83
2023-05-14T19:18:27.776Z,67.33
2023-05-14T19:20:30.620Z,67.37
2023-05-14T19:22:33.502Z,67.17
2023-05-14T19:24:38.413Z,67.87
2023-05-14T19:26:42.362Z,67.40
2023-05-14T19:28:44.932Z,67.16
2023-05-14T19:30:48.228Z,67.53
2023-05-14T19:32:51.419Z,67.78
2023-05-14T19:34:54.773Z,68.02
2023-05-14T19:36:57.962Z,67.86
2023-05-14T19:39:01.053Z,67.93
2023-05-14T19:41:04.041Z,68.34
2023-05-14T19:43:08.990Z,67.93
2023-05-14T19:45:12.340Z,67.84
2023-05-14T19:47:15.906Z,67.73
2023-05-14T19:49:18.917Z,68.00
2023-05-14T19:51:21.848Z,68.62
2023-05-14T19:53:30.254Z,68.18
2023-05-14T19:55:33.378Z,68.29
2023-05-14T19:57:35.985Z,68.15
2023-05-14T19:59:40.007Z,68.23
2023-05-14T20:01:42.649Z,67.94
2023-05-14T20:03:45.436Z,68.16
2023-05-14T20:05:49.464Z,68.25
2023-05-14T20:07:54.968Z,68.36
2023-05-14T20:09:57.622Z,68.21
2023-05-14T20:12:00.446Z,68.33
2023-05-14T20:14:03.373Z,68.00
2023-05-14T20:16:07.124Z,67.69
2023-05-14T20:18:10.381Z,67.82
2023-05-14T20:20:14.861Z,68.13
2023-05-14T20:22:17.613Z,68.83
2023-05-14T20:24:20.620Z,68.72
2023-05-14T20:26:23.291Z,68.11
2023-05-14T20:28:26.459Z,68.38
2023-05-14T20:30:29.529Z,68.24
2023-05-14T20:32:32.700Z,68.10
2023-05-14T20:34:35.442Z,68.58
2023-05-14T20:36:38.129Z,67.87
2023-05-14T20:38:41.357Z,68.46
2023-05-14T20:40:45.091Z,68.65
2023-05-14T20:42:47.870Z,67.93
2023-05-14T20:44:51.093Z,68.64
2023-05-14T20:46:53.748Z,69.07
2023-05-14T20:48:57.885Z,69.10
2023-05-14T20:51:02.094Z,69.80
2023-05-14T20:53:05.136Z,69.79
2023-05-14T20:55:08.939Z,69.51
2023-05-14T20:57:12.082Z,69.29
2023-05-14T20:59:14.642Z,70.25
2023-05-14T21:01:17.936Z,69.47
2023-05-14T21:03:21.809Z,69.60
2023-05-14T21:05:24.987Z,69.59
2023-05-14T21:07:28.903Z,69.63
2023-05-14T21:09:31.853Z,70.28
2023-05-14T21:11:34.728Z,69.56
2023-05-14T21:13:37.419Z,69.79
2023-05-14T21:15:40.266Z,70.20
2023-05-14T21:17:42.934Z,70.35
2023-05-14T21:19:45.527Z,70.13
2023-05-14T21:21:48.061Z,69.82
2023-05-14T21:23:50.630Z,70.16
2023-05-14T21:25:55.020Z,69.97
2023-05-14T21:27:58.204Z,69.68
2023-05-14T21:30:00.621Z,69.93
2023-05-14T21:32:03.454Z,70.25
2023-05-14T21:34:06.768Z,69.90
2023-05-14T21:36:10.139Z,69.88
2023-05-14T21:38:13.246Z,70.28
2023-05-14T21:40:16.588Z,70.00
2023-05-14T21:42:21.589Z,70.28
2023-05-14T21:44:24.236Z,70.25
2023-05-14T21:46:27.125Z,70.40
2023-05-14T21:48:29.663Z,70.27
2023-05-14T21:50:31.993Z,70.40
2023-05-14T21:52:34.442Z,70.02
2023-05-14T21:54:36.855Z,70.09
2023-05-14T21:56:40.567Z,70.07
2023-05-14T21:58:43.081Z,70.19
2023-05-14T22:00:46.045Z,69.91
2023-05-14T22:02:48.686Z,70.01
2023-05-14T22:04:51.180Z,70.22
2023-05-14T22:06:53.913Z,70.09
2023-05-14T22:08:56.724Z,70.03
2023-05-14T22:10:59.094Z,70.22
2023-05-14T22:13:01.729Z,70.16
2023-05-14T22:15:05.744Z,70.02
2023-05-14T22:17:08.754Z,69.96
2023-05-14T22:19:12.260Z,70.22
2023-05-14T22:21:15.565Z,69.97
2023-05-14T22:23:18.582Z,69.54
2023-05-14T22:25:21.053Z,69.99
2023-05-14T22:27:23.652Z,70.44
2023-05-14T22:29:26.582Z,70.30
2023-05-14T22:31:30.553Z,70.26
2023-05-14T22:33:33.692Z,70.34
2023-05-14T22:35:36.996Z,70.23
2023-05-14T22:37:40.572Z,70.47
2023-05-14T22:39:44.273Z,70.47
2023-05-14T22:41:46.753Z,70.52
2023-05-14T22:43:50.443Z,70.75
2023-05-14T22:45:53.548Z,71.02
2023-05-14T22:47:56.062Z,70.70
2023-05-14T22:49:58.573Z,70.37
2023-05-14T22:52:02.005Z,70.83
2023-05-14T22:54:05.393Z,70.63
2023-05-14T22:56:08.478Z,70.42
2023-05-14T22:58:11.524Z,70.68
2023-05-14T23:00:15.212Z,71.14
2023-05-14T23:02:18.482Z,70.92
2023-05-14T23:04:21.438Z,70.78
2023-05-14T23:06:25.569Z,71.01
2023-05-14T23:08:28.511Z,71.12
2023-05-14T23:10:31.205Z,71.28
2023-05-14T23:12:34.961Z,71.25
2023-05-14T23:14:38.203Z,71.59
2023-05-14T23:16:40.913Z,71.16
2023-05-14T23:18:44.330Z,71.19
2023-05-14T23:20:46.916Z,71.65
2023-05-14T23:22:49.861Z,71.48
2023-05-14T23:24:53.052Z,71.72
2023-05-14T23:26:56.278Z,71.28
2023-05-14T23:28:58.888Z,71.93
2023-05-14T23:31:01.843Z,71.56
2023-05-14T23:33:04.452Z,71.99
2023-05-14T23:35:07.111Z,71.83
2023-05-14T23:37:09.932Z,71.63
2023-05-14T23:39:12.794Z,71.73
2023-05-14T23:41:15.159Z,71.55
2023-05-14T23:43:18.187Z,71.67
2023-05-14T23:45:21.229Z,71.83
2023-05-14T23:47:23.702Z,71.86
2023-05-14T23:49:26.494Z,72.15
2023-05-14T23:51:29.033Z,71.90
2023-05-14T23:53:32.129Z,71.90
2023-05-14T23:55:34.817Z,72.07
2023-05-14T23:57:37.807Z,72.33
2023-05-14T23:59:40.680Z,72.23
